Time;durP1;ratioP1;P1;durP2;ratioP2;P2;SDS_P1;SDS_P2;PMS_P1;PMS_P2;Temp;Humidity;BMP_temperature;BMP_pressure;BME280_temperature;BME280_humidity;BME280_pressure;Samples;Min_cycle;Max_cycle;Signal;HPM_P1;HPM_P2
2022/12/17 13:06:43;;;;;;;5.27;4.87;;;2.40;99.90;;;;;;6246762;23;20173;-89
2022/12/17 13:09:15;;;;;;;6.57;5.97;;;2.50;99.90;;;;;;6220719;23;20186;-89
2022/12/17 13:11:45;;;;;;;6.53;5.33;;;2.40;99.90;;;;;;6220243;23;20276;-89
2022/12/17 13:14:20;;;;;;;12.20;5.90;;;2.40;99.90;;;;;;6220376;23;20197;-89
2022/12/17 13:16:46;;;;;;;7.10;6.50;;;2.40;99.90;;;;;;6220059;23;20243;-90
2022/12/17 13:19:42;;;;;;;12.03;7.67;;;2.40;99.90;;;;;;6246344;23;20201;-90
2022/12/17 13:22:25;;;;;;;6.20;3.87;;;2.40;99.90;;;;;;6217700;23;20231;-89
2022/12/17 13:24:54;;;;;;;25.93;6.40;;;2.40;99.90;;;;;;6220051;23;20180;-90
2022/12/17 13:27:37;;;;;;;11.67;4.87;;;2.40;99.90;;;;;;6220886;23;20208;-90
2022/12/17 13:30:21;;;;;;;8.60;5.87;;;2.30;99.90;;;;;;6220036;23;20177;-90
2022/12/17 13:33:21;;;;;;;10.90;8.60;;;2.20;99.90;;;;;;6220148;23;20264;-89
2022/12/17 13:36:16;;;;;;;6.40;5.37;;;2.20;99.90;;;;;;6220214;23;20200;-88
2022/12/17 13:38:54;;;;;;;14.77;9.30;;;2.20;99.90;;;;;;6220436;23;20205;-89
2022/12/17 13:41:32;;;;;;;7.23;5.57;;;2.20;99.90;;;;;;6220635;23;20189;-88
2022/12/17 13:44:21;;;;;;;9.27;8.37;;;2.20;99.90;;;;;;6220570;23;20196;-88
2022/12/17 13:46:49;;;;;;;6.67;6.07;;;2.10;99.90;;;;;;6220535;23;20268;-89
2022/12/17 13:49:26;;;;;;;12.43;8.17;;;2.10;99.90;;;;;;6220576;23;20196;-90
2022/12/17 13:52:15;;;;;;;5.90;5.10;;;2.10;99.90;;;;;;6219571;23;20156;-90
2022/12/17 13:54:41;;;;;;;7.20;6.17;;;2.00;99.90;;;;;;6219732;23;20217;-90
2022/12/17 13:57:09;;;;;;;4.43;4.00;;;2.00;99.90;;;;;;6170905;23;20625;-90
2022/12/17 13:59:35;;;;;;;9.90;5.57;;;2.00;99.90;;;;;;6219362;23;20204;-90
2022/12/17 14:02:03;;;;;;;7.77;7.27;;;2.00;99.90;;;;;;6169654;23;20193;-89
2022/12/17 14:04:30;;;;;;;12.27;6.97;;;1.90;99.90;;;;;;6171192;23;20185;-90
2022/12/17 14:07:03;;;;;;;23.07;18.73;;;1.90;99.90;;;;;;6194503;23;20504;-91
2022/12/17 14:09:37;;;;;;;7.03;6.43;;;1.90;99.90;;;;;;6220005;23;20149;-91
2022/12/17 14:12:20;;;;;;;14.17;4.13;;;1.90;99.90;;;;;;6220340;23;20219;-90
2022/12/17 14:14:59;;;;;;;10.63;6.00;;;1.80;99.90;;;;;;6220243;23;20200;-90
2022/12/17 14:17:36;;;;;;;7.70;7.00;;;1.80;99.90;;;;;;6220713;23;20204;-90
2022/12/17 14:20:07;;;;;;;14.70;6.47;;;1.80;99.90;;;;;;6219941;23;20209;-89
2022/12/17 14:22:42;;;;;;;7.00;6.40;;;1.80;99.90;;;;;;6220398;23;20200;-90
2022/12/17 14:25:36;;;;;;;5.10;4.80;;;1.70;99.90;;;;;;6220472;23;20513;-90
2022/12/17 14:28:32;;;;;;;26.97;4.87;;;1.70;99.90;;;;;;6219775;23;21097;-90
2022/12/17 14:31:13;;;;;;;6.63;3.83;;;1.70;99.90;;;;;;6220371;23;20189;-91
2022/12/17 14:33:40;;;;;;;9.97;5.50;;;1.60;99.90;;;;;;6219983;23;20148;-90
2022/12/17 14:36:20;;;;;;;4.53;4.10;;;1.60;99.90;;;;;;6220550;23;20177;-90
2022/12/17 14:39:23;;;;;;;6.30;5.27;;;1.50;99.90;;;;;;6219670;23;20644;-90
2022/12/17 14:44:37;;;;;;;5.67;4.53;;;1.50;99.90;;;;;;6202876;23;20661;-89
2022/12/17 14:47:30;;;;;;;8.13;7.40;;;1.40;99.90;;;;;;6220013;23;20189;-90
2022/12/17 14:49:58;;;;;;;6.13;5.40;;;1.40;99.90;;;;;;6219866;23;20717;-89
2022/12/17 14:52:32;;;;;;;6.40;5.77;;;1.40;99.90;;;;;;6219817;23;20216;-88
2022/12/17 14:54:58;;;;;;;6.93;6.33;;;1.40;99.90;;;;;;6219421;23;20203;-88
2022/12/17 14:57:24;;;;;;;10.17;5.60;;;1.30;99.90;;;;;;6195267;23;20161;-89
2022/12/17 14:59:51;;;;;;;8.93;4.43;;;1.30;99.90;;;;;;6169887;23;20201;-88
2022/12/17 15:02:26;;;;;;;6.97;4.37;;;1.30;99.90;;;;;;6194741;23;20199;-89
2022/12/17 15:04:56;;;;;;;3.77;3.40;;;1.20;99.90;;;;;;6219544;23;20196;-89
2022/12/17 15:07:24;;;;;;;3.63;3.43;;;1.20;99.90;;;;;;6219248;23;20192;-89
2022/12/17 15:09:51;;;;;;;17.30;7.07;;;1.10;99.90;;;;;;6219763;23;20161;-89
2022/12/17 15:12:18;;;;;;;3.83;3.53;;;1.10;99.90;;;;;;6195458;23;20464;-90
2022/12/17 15:14:45;;;;;;;4.43;3.97;;;1.10;99.90;;;;;;6194744;23;20232;-89
2022/12/17 15:17:11;;;;;;;6.03;4.73;;;1.10;99.90;;;;;;6194997;23;20247;-89
2022/12/17 15:19:37;;;;;;;2.90;2.73;;;1.00;99.90;;;;;;6170608;23;20201;-92
2022/12/17 15:22:03;;;;;;;6.60;4.97;;;1.00;99.90;;;;;;6219619;23;20254;-90
2022/12/17 15:24:29;;;;;;;8.47;6.03;;;1.00;99.90;;;;;;6170749;23;20295;-90
2022/12/17 15:26:55;;;;;;;5.07;4.60;;;1.00;99.90;;;;;;6170359;23;20217;-90
2022/12/17 15:29:23;;;;;;;7.07;6.47;;;0.90;99.90;;;;;;6194963;23;20189;-90
2022/12/17 15:31:49;;;;;;;4.33;3.60;;;0.90;99.90;;;;;;6171006;23;20189;-90
2022/12/17 15:34:15;;;;;;;10.43;6.37;;;0.90;99.90;;;;;;6195430;23;20192;-90
2022/12/17 15:36:40;;;;;;;6.53;5.97;;;0.80;99.90;;;;;;6170518;23;20245;-91
2022/12/17 15:39:07;;;;;;;4.23;3.93;;;0.80;99.90;;;;;;6170983;23;20189;-90
2022/12/17 15:44:17;;;;;;;9.70;7.33;;;0.70;99.90;;;;;;6246385;23;20243;-90
2022/12/17 15:46:43;;;;;;;5.47;5.10;;;0.70;99.90;;;;;;6195026;23;20189;-90
2022/12/17 15:49:08;;;;;;;4.87;3.53;;;0.70;99.90;;;;;;6169799;23;20193;-90
2022/12/17 15:51:34;;;;;;;4.33;3.93;;;0.70;99.90;;;;;;6170181;23;20175;-90
2022/12/17 15:54:00;;;;;;;8.50;5.47;;;0.60;99.90;;;;;;6194115;23;20193;-90
2022/12/17 15:56:27;;;;;;;4.80;4.30;;;0.60;99.90;;;;;;6219534;23;20209;-89
2022/12/17 15:58:56;;;;;;;5.73;4.20;;;0.60;99.90;;;;;;6219207;23;20727;-90
2022/12/17 16:01:23;;;;;;;5.57;5.00;;;0.60;99.90;;;;;;6220267;23;20272;-89
2022/12/17 16:03:48;;;;;;;4.93;4.63;;;0.60;99.90;;;;;;6219781;23;20160;-89
2022/12/17 16:06:14;;;;;;;13.00;5.03;;;0.60;99.90;;;;;;6170633;23;20161;-91
2022/12/17 16:08:40;;;;;;;9.17;7.63;;;0.60;99.90;;;;;;6170016;23;20204;-90
2022/12/17 16:11:08;;;;;;;4.83;4.50;;;0.70;99.90;;;;;;6194890;23;20192;-90
2022/12/17 16:13:34;;;;;;;6.43;5.97;;;0.70;99.90;;;;;;6194230;23;20194;-91
2022/12/17 16:16:00;;;;;;;7.83;3.60;;;0.70;99.90;;;;;;6219494;23;20208;-90
2022/12/17 16:18:26;;;;;;;4.30;3.90;;;0.70;99.90;;;;;;6170000;23;20157;-89
2022/12/17 16:20:52;;;;;;;4.40;4.00;;;0.70;99.90;;;;;;6169929;23;20193;-90
2022/12/17 16:23:19;;;;;;;18.03;4.73;;;0.70;99.90;;;;;;6194274;23;20194;-90
2022/12/17 16:25:57;;;;;;;4.87;4.43;;;0.70;99.90;;;;;;6194400;23;20759;-90
2022/12/17 16:28:24;;;;;;;7.13;6.50;;;0.70;99.90;;;;;;6219339;23;20190;-89
2022/12/17 16:31:00;;;;;;;7.43;4.27;;;0.70;99.90;;;;;;6194497;23;20165;-90
2022/12/17 16:33:30;;;;;;;20.63;6.10;;;0.70;99.90;;;;;;6220014;23;20138;-91
2022/12/17 16:35:55;;;;;;;6.97;6.47;;;0.70;99.90;;;;;;6221299;23;20200;-91
2022/12/17 16:38:21;;;;;;;25.37;7.67;;;0.70;99.90;;;;;;6196326;23;20189;-89
2022/12/17 16:40:47;;;;;;;6.00;5.50;;;0.60;99.90;;;;;;6171829;23;20189;-90
2022/12/17 16:43:13;;;;;;;5.87;5.50;;;0.60;99.90;;;;;;6221451;23;20626;-89
2022/12/17 16:45:48;;;;;;;5.00;4.60;;;0.60;99.90;;;;;;6199476;23;20168;-90
2022/12/17 16:48:14;;;;;;;2.63;2.43;;;0.50;99.90;;;;;;6226535;23;20687;-89
2022/12/17 16:50:40;;;;;;;7.07;6.20;;;0.50;99.90;;;;;;6195879;23;20201;-91
2022/12/17 16:53:06;;;;;;;3.90;3.70;;;0.50;99.90;;;;;;6170613;23;20193;-90
2022/12/17 16:55:32;;;;;;;6.73;6.13;;;0.50;99.90;;;;;;6171045;23;20191;-89
2022/12/17 16:57:58;;;;;;;5.23;4.90;;;0.50;99.90;;;;;;6171292;23;20603;-90
2022/12/17 17:00:23;;;;;;;10.33;6.50;;;0.50;99.90;;;;;;6172052;23;20193;-91
2022/12/17 17:02:49;;;;;;;3.53;3.27;;;0.50;99.90;;;;;;6171139;23;20201;-89
2022/12/17 17:05:15;;;;;;;9.30;7.33;;;0.50;99.90;;;;;;6171356;23;20185;-91
2022/12/17 17:07:41;;;;;;;9.80;8.50;;;0.50;99.90;;;;;;6171587;23;20192;-89
2022/12/17 17:10:07;;;;;;;8.03;7.47;;;0.40;99.90;;;;;;6171597;23;20598;-90
2022/12/17 17:12:32;;;;;;;12.27;6.00;;;0.40;99.90;;;;;;6172320;23;20168;-90
2022/12/17 17:14:58;;;;;;;3.50;3.30;;;0.40;99.90;;;;;;6171221;23;20212;-90
2022/12/17 17:17:24;;;;;;;3.07;2.90;;;0.30;99.90;;;;;;6170949;23;20804;-91
2022/12/17 17:19:49;;;;;;;3.43;3.30;;;0.30;99.90;;;;;;6220823;23;20216;-89
2022/12/17 17:22:15;;;;;;;7.13;6.53;;;0.30;99.90;;;;;;6171441;23;20633;-90
2022/12/17 17:24:41;;;;;;;6.50;4.97;;;0.30;99.90;;;;;;6196036;23;20219;-90
2022/12/17 17:27:07;;;;;;;5.83;3.03;;;0.20;99.90;;;;;;6171505;23;20245;-90
2022/12/17 17:29:32;;;;;;;3.87;2.77;;;0.20;99.90;;;;;;6171549;23;20280;-90
2022/12/17 17:31:58;;;;;;;6.80;6.20;;;0.30;99.90;;;;;;6171254;23;20200;-90
2022/12/17 17:34:24;;;;;;;1.37;1.37;;;0.20;99.90;;;;;;6171622;23;20644;-90
2022/12/17 17:36:50;;;;;;;5.13;3.93;;;0.20;99.90;;;;;;6171246;23;20165;-90
2022/12/17 17:39:15;;;;;;;4.27;3.87;;;0.20;99.90;;;;;;6196915;23;20189;-90
2022/12/17 17:41:41;;;;;;;7.80;4.30;;;0.20;99.90;;;;;;6195699;23;20193;-89
2022/12/17 17:44:10;;;;;;;5.40;5.10;;;0.10;99.90;;;;;;6170630;23;20197;-88
2022/12/17 17:46:36;;;;;;;6.90;6.23;;;0.10;99.90;;;;;;6219659;23;20193;-89
2022/12/17 17:49:04;;;;;;;4.20;3.90;;;0.10;99.90;;;;;;6170167;23;20623;-89
2022/12/17 17:51:32;;;;;;;6.60;4.90;;;0.10;99.90;;;;;;6220499;23;20158;-89
2022/12/17 17:54:00;;;;;;;1.77;1.67;;;0.00;99.90;;;;;;6219717;23;20506;-89
2022/12/17 17:56:32;;;;;;;6.10;5.60;;;0.10;99.90;;;;;;6220481;23;20193;-89
2022/12/17 17:59:00;;;;;;;6.60;6.17;;;0.10;99.90;;;;;;6220175;23;20646;-89
2022/12/17 18:01:29;;;;;;;9.50;6.40;;;0.10;99.90;;;;;;6220492;23;20223;-90
2022/12/17 18:03:58;;;;;;;4.87;4.00;;;0.10;99.90;;;;;;6219834;23;20150;-89
2022/12/17 18:06:25;;;;;;;3.90;3.67;;;0.10;99.90;;;;;;6220857;23;20149;-88
2022/12/17 18:08:51;;;;;;;11.63;6.50;;;0.20;99.90;;;;;;6195466;23;20645;-89
2022/12/17 18:11:19;;;;;;;5.23;4.03;;;0.20;99.90;;;;;;6220193;23;20529;-89
2022/12/17 18:13:54;;;;;;;9.10;8.30;;;0.20;99.90;;;;;;6220212;23;20201;-89
2022/12/17 18:16:41;;;;;;;2.97;2.70;;;0.20;99.90;;;;;;6174541;23;20219;-89
2022/12/17 18:19:13;;;;;;;3.27;3.00;;;0.20;99.90;;;;;;6215032;23;20573;-89
2022/12/17 18:21:39;;;;;;;5.37;4.97;;;0.20;99.90;;;;;;6215622;23;20170;-89
2022/12/17 18:24:14;;;;;;;7.00;6.47;;;0.20;99.90;;;;;;6166092;23;20173;-89
2022/12/17 18:26:41;;;;;;;21.63;7.57;;;0.10;99.90;;;;;;6215291;23;20669;-89
2022/12/17 18:29:13;;;;;;;7.30;6.83;;;0.10;99.90;;;;;;6190206;23;20530;-89
2022/12/17 18:31:39;;;;;;;13.43;3.17;;;0.10;99.90;;;;;;6215057;23;20522;-89
2022/12/17 18:34:06;;;;;;;5.33;4.63;;;0.10;99.90;;;;;;6165419;23;20190;-88
2022/12/17 18:36:37;;;;;;;3.97;2.40;;;0.10;99.90;;;;;;6190731;23;20158;-89
2022/12/17 18:39:23;;;;;;;4.97;2.37;;;0.10;99.90;;;;;;6215342;23;20273;-89
2022/12/17 18:44:40;;;;;;;6.50;4.33;;;0.20;99.90;;;;;;6215012;23;20538;-88
2022/12/17 18:47:08;;;;;;;8.43;5.50;;;0.10;99.90;;;;;;6190309;23;20194;-89
2022/12/17 18:49:34;;;;;;;5.77;3.73;;;0.20;99.90;;;;;;6215754;23;20190;-91
2022/12/17 18:52:00;;;;;;;3.43;3.23;;;0.10;99.90;;;;;;6193159;23;20256;-94
2022/12/17 18:54:28;;;;;;;8.80;3.90;;;0.20;99.90;;;;;;6193116;23;20533;-95
2022/12/17 18:57:01;;;;;;;8.30;4.40;;;0.10;99.90;;;;;;6195019;23;20205;-94
2022/12/17 18:59:30;;;;;;;3.97;3.67;;;0.10;99.90;;;;;;6230512;23;20364;-94
2022/12/17 19:01:58;;;;;;;6.93;6.00;;;0.10;99.90;;;;;;6229643;23;20194;-94
2022/12/17 19:04:25;;;;;;;6.67;3.47;;;0.10;99.90;;;;;;6214341;23;20402;-94
2022/12/17 19:06:52;;;;;;;14.47;4.00;;;0.00;99.90;;;;;;6204094;23;20149;-94
2022/12/17 19:09:24;;;;;;;5.53;4.90;;;-0.10;99.90;;;;;;6182957;23;20178;-94
2022/12/17 19:11:51;;;;;;;5.67;3.13;;;-0.20;99.90;;;;;;6200959;23;20208;-94
2022/12/17 19:14:17;;;;;;;10.70;6.67;;;-0.20;99.90;;;;;;6225253;23;20204;-93
2022/12/17 19:16:43;;;;;;;2.90;2.70;;;-0.20;99.90;;;;;;6199782;23;20185;-94
2022/12/17 19:19:13;;;;;;;2.83;2.73;;;-0.30;99.90;;;;;;6199890;23;20257;-94
2022/12/17 19:21:39;;;;;;;5.50;5.00;;;-0.30;99.90;;;;;;6225240;23;20225;-93
2022/12/17 19:24:08;;;;;;;5.17;4.33;;;-0.30;99.90;;;;;;6226058;23;20154;-94
2022/12/17 19:26:34;;;;;;;8.00;7.13;;;-0.30;99.90;;;;;;6198201;23;20190;-93
2022/12/17 19:29:01;;;;;;;3.70;2.73;;;-0.40;99.90;;;;;;6221735;23;20201;-93
2022/12/17 19:31:30;;;;;;;3.97;3.77;;;-0.40;99.90;;;;;;6224391;23;20206;-93
2022/12/17 19:33:57;;;;;;;4.20;4.00;;;-0.50;99.90;;;;;;6226361;23;20154;-93
2022/12/17 19:36:25;;;;;;;6.43;5.90;;;-0.50;99.90;;;;;;6198782;23;20154;-93
2022/12/17 19:38:56;;;;;;;4.93;4.70;;;-0.60;99.90;;;;;;6225008;23;20210;-94
2022/12/17 19:41:22;;;;;;;5.30;2.60;;;-0.60;99.90;;;;;;6224475;23;20190;-93
2022/12/17 19:43:54;;;;;;;5.80;4.43;;;-0.60;99.90;;;;;;6222436;23;20268;-94
2022/12/17 19:46:20;;;;;;;3.70;3.57;;;-0.70;99.90;;;;;;6221269;23;20619;-93
2022/12/17 19:48:46;;;;;;;12.87;5.00;;;-0.70;99.90;;;;;;6223717;23;20224;-94
2022/12/17 19:51:16;;;;;;;5.03;4.63;;;-0.70;99.90;;;;;;6227745;23;20189;-94
2022/12/17 19:53:43;;;;;;;5.00;3.10;;;-0.70;99.90;;;;;;6223068;23;20247;-93
2022/12/17 19:56:21;;;;;;;5.17;4.77;;;-0.70;99.90;;;;;;6223753;23;20643;-93
2022/12/17 19:58:56;;;;;;;4.57;4.37;;;-0.80;99.90;;;;;;6229666;23;20525;-94
2022/12/17 20:01:25;;;;;;;6.20;3.13;;;-0.80;99.90;;;;;;6228896;23;20185;-94
2022/12/17 20:03:52;;;;;;;7.23;5.70;;;-0.80;99.90;;;;;;6229015;23;20158;-93
2022/12/17 20:06:21;;;;;;;3.37;3.20;;;-0.80;99.90;;;;;;6227870;23;20147;-93
2022/12/17 20:08:47;;;;;;;3.87;1.27;;;-0.80;99.90;;;;;;6192466;23;20193;-93
2022/12/17 20:11:33;;;;;;;5.43;1.90;;;-0.90;99.90;;;;;;6227707;23;20197;-93
2022/12/17 20:14:10;;;;;;;5.47;5.03;;;-0.90;99.90;;;;;;6205431;23;20194;-94
2022/12/17 20:16:42;;;;;;;3.00;2.40;;;-0.90;99.90;;;;;;6221530;23;20205;-93
2022/12/17 20:19:14;;;;;;;7.07;5.23;;;-1.00;99.90;;;;;;6225775;23;20206;-93
2022/12/17 20:21:40;;;;;;;4.53;4.23;;;-1.00;99.90;;;;;;6225182;23;20244;-93
2022/12/17 20:24:06;;;;;;;2.70;2.50;;;-1.00;99.90;;;;;;6226696;23;20270;-93
2022/12/17 20:26:33;;;;;;;13.77;5.43;;;-1.00;99.90;;;;;;6199497;23;20228;-92
2022/12/17 20:28:59;;;;;;;5.83;2.63;;;-1.00;99.90;;;;;;6200286;23;20210;-93
2022/12/17 20:31:27;;;;;;;3.80;3.00;;;-1.00;99.90;;;;;;6235147;23;20194;-93
2022/12/17 20:33:53;;;;;;;4.17;3.90;;;-1.00;99.90;;;;;;6209633;23;20164;-92
2022/12/17 20:36:24;;;;;;;4.30;2.63;;;-1.00;99.90;;;;;;6204726;23;20177;-93
2022/12/17 20:38:56;;;;;;;14.23;3.87;;;-1.10;99.90;;;;;;6225057;23;20296;-93
2022/12/17 20:41:33;;;;;;;5.33;4.33;;;-1.10;99.90;;;;;;6238809;23;20205;-93
2022/12/17 20:44:06;;;;;;;4.10;3.70;;;-1.10;99.90;;;;;;6235375;23;20197;-93
2022/12/17 20:46:40;;;;;;;4.67;3.67;;;-1.10;99.90;;;;;;6236461;23;20190;-94
2022/12/17 20:49:14;;;;;;;7.53;6.90;;;-1.10;99.90;;;;;;6238673;23;20193;-93
2022/12/17 20:52:15;;;;;;;2.83;2.63;;;-1.20;99.90;;;;;;6216377;23;20241;-93
2022/12/17 20:54:52;;;;;;;5.97;3.47;;;-1.20;99.90;;;;;;6238735;23;20158;-93
2022/12/17 20:58:01;;;;;;;5.10;3.00;;;-1.20;99.90;;;;;;6238572;23;20162;-94
2022/12/17 21:00:52;;;;;;;1.37;1.37;;;-1.20;99.90;;;;;;6241828;23;20160;-94
2022/12/17 21:03:20;;;;;;;1.43;0.77;;;-1.30;99.90;;;;;;6143398;23;20161;-94
2022/12/17 21:05:50;;;;;;;5.17;3.33;;;-1.30;99.90;;;;;;6240633;23;20232;-93
2022/12/17 21:08:20;;;;;;;2.67;2.43;;;-1.30;99.90;;;;;;6238851;23;20197;-94
2022/12/17 21:10:46;;;;;;;2.23;2.13;;;-1.40;99.90;;;;;;6234645;23;20194;-93
2022/12/17 21:13:31;;;;;;;7.00;2.10;;;-1.40;99.90;;;;;;6237663;23;20214;-93
2022/12/17 21:16:08;;;;;;;2.43;2.33;;;-1.50;99.90;;;;;;6232941;23;20201;-94
2022/12/17 21:18:35;;;;;;;7.97;2.93;;;-1.50;99.90;;;;;;6229262;23;20138;-93
2022/12/17 21:21:23;;;;;;;2.33;2.23;;;-1.50;99.90;;;;;;6226999;23;20225;-93
2022/12/17 21:23:49;;;;;;;3.33;3.07;;;-1.50;99.90;;;;;;6223455;23;20198;-93
2022/12/17 21:26:28;;;;;;;0.93;0.93;;;-1.50;99.90;;;;;;6198354;23;20193;-93
2022/12/17 21:28:59;;;;;;;4.40;3.13;;;-1.50;99.90;;;;;;6221178;23;20634;-94
2022/12/17 21:31:35;;;;;;;7.73;5.03;;;-1.50;99.90;;;;;;6220512;23;20193;-93
2022/12/17 21:34:04;;;;;;;5.10;4.70;;;-1.50;99.90;;;;;;6221174;23;20194;-93
2022/12/17 21:36:31;;;;;;;1.57;1.53;;;-1.60;99.90;;;;;;6226427;23;20186;-93
2022/12/17 21:38:58;;;;;;;1.80;1.53;;;-1.60;99.90;;;;;;6197221;23;20206;-94
2022/12/17 21:41:30;;;;;;;4.53;2.73;;;-1.70;99.90;;;;;;6174281;23;20198;-93
2022/12/17 21:43:59;;;;;;;8.47;2.93;;;-1.60;99.90;;;;;;6221119;23;20521;-93
2022/12/17 21:46:27;;;;;;;4.57;4.27;;;-1.60;99.90;;;;;;6221167;23;20190;-93
2022/12/17 21:48:53;;;;;;;3.63;3.33;;;-1.70;99.90;;;;;;6219626;23;20154;-92
2022/12/17 21:51:20;;;;;;;3.40;3.13;;;-1.60;99.90;;;;;;6220297;23;20154;-94
2022/12/17 21:53:46;;;;;;;2.07;1.80;;;-1.70;99.90;;;;;;6219253;23;20198;-93
2022/12/17 21:56:17;;;;;;;1.60;1.50;;;-1.80;99.90;;;;;;6219514;23;20259;-93
2022/12/17 21:58:44;;;;;;;4.00;3.80;;;-1.70;99.90;;;;;;6193658;23;20198;-92
2022/12/17 22:01:13;;;;;;;2.73;2.53;;;-1.70;99.90;;;;;;6170598;23;20269;-92
2022/12/17 22:03:40;;;;;;;5.07;4.47;;;-1.70;99.90;;;;;;6198137;23;20154;-93
2022/12/17 22:06:12;;;;;;;2.43;2.00;;;-1.70;99.90;;;;;;6223618;23;20506;-92
2022/12/17 22:08:39;;;;;;;1.80;1.33;;;-1.80;99.90;;;;;;6221726;23;20197;-92
2022/12/17 22:11:14;;;;;;;3.77;3.57;;;-1.80;99.90;;;;;;6171291;23;20196;-93
2022/12/17 22:16:26;;;;;;;8.37;4.17;;;-1.80;99.90;;;;;;6221135;23;20197;-93
2022/12/17 22:18:52;;;;;;;2.03;1.93;;;-1.80;99.90;;;;;;6177565;23;20181;-93
2022/12/17 22:21:19;;;;;;;6.63;5.03;;;-1.80;99.90;;;;;;6182806;23;20157;-93
2022/12/17 22:23:48;;;;;;;3.97;2.97;;;-1.80;99.90;;;;;;6205471;23;20203;-94
2022/12/17 22:26:18;;;;;;;4.13;3.37;;;-1.80;99.90;;;;;;6231391;23;20216;-92
2022/12/17 22:28:48;;;;;;;14.67;5.40;;;-1.80;99.90;;;;;;6203306;23;20197;-93
2022/12/17 22:34:08;;;;;;;2.00;1.83;;;-1.80;99.90;;;;;;6255225;23;20653;-92
2022/12/17 22:36:34;;;;;;;2.03;1.47;;;-1.80;99.90;;;;;;6230785;23;20176;-92
2022/12/17 22:39:03;;;;;;;2.50;2.33;;;-1.80;99.90;;;;;;6226523;23;20208;-92
2022/12/17 22:44:14;;;;;;;3.57;3.33;;;-1.90;99.90;;;;;;6231009;23;20193;-93
2022/12/17 22:46:40;;;;;;;0.70;0.70;;;-1.90;99.90;;;;;;6203849;23;20523;-93
2022/12/17 22:49:06;;;;;;;9.47;5.10;;;-1.90;99.90;;;;;;6206412;23;20612;-93
2022/12/17 22:51:32;;;;;;;2.97;2.77;;;-1.90;99.90;;;;;;6229493;23;20176;-92
2022/12/17 22:54:03;;;;;;;2.57;2.20;;;-1.90;99.90;;;;;;6195797;23;20689;-92
2022/12/17 22:56:29;;;;;;;3.27;2.97;;;-1.90;99.90;;;;;;6221929;23;20276;-89
2022/12/17 22:58:56;;;;;;;7.80;5.10;;;-1.90;99.90;;;;;;6219730;23;20588;-90
2022/12/17 23:01:21;;;;;;;3.73;3.53;;;-1.90;99.90;;;;;;6195315;23;20189;-89
2022/12/17 23:03:47;;;;;;;7.53;4.17;;;-1.90;99.90;;;;;;6195537;23;20160;-89
2022/12/17 23:06:15;;;;;;;10.37;3.37;;;-2.00;99.90;;;;;;6221064;23;20189;-92
2022/12/17 23:08:42;;;;;;;1.83;1.73;;;-2.00;99.90;;;;;;6220128;23;20196;-92
2022/12/17 23:11:11;;;;;;;3.37;3.07;;;-2.00;99.90;;;;;;6170321;23;20642;-92
2022/12/17 23:13:37;;;;;;;11.60;4.47;;;-2.00;99.90;;;;;;6220027;23;20189;-92
2022/12/17 23:16:05;;;;;;;1.43;1.43;;;-2.00;99.90;;;;;;6170406;23;20205;-91
2022/12/17 23:18:31;;;;;;;2.07;1.93;;;-2.00;99.90;;;;;;6220243;23;20181;-91
2022/12/17 23:21:23;;;;;;;4.20;3.90;;;-2.00;99.90;;;;;;6170297;23;20211;-91
2022/12/17 23:23:53;;;;;;;4.00;3.73;;;-2.00;99.90;;;;;;6219861;23;20255;-91
2022/12/17 23:26:28;;;;;;;9.53;4.70;;;-2.00;99.90;;;;;;6220071;23;20254;-92
2022/12/17 23:29:00;;;;;;;5.93;4.73;;;-2.00;99.90;;;;;;6219977;23;20188;-92
2022/12/17 23:31:29;;;;;;;3.00;2.83;;;-2.00;99.90;;;;;;6220157;23;20193;-91
2022/12/17 23:33:55;;;;;;;3.10;2.93;;;-1.90;99.90;;;;;;6219763;23;20157;-91
2022/12/17 23:36:23;;;;;;;4.13;3.47;;;-2.00;99.90;;;;;;6171289;23;20165;-91
2022/12/17 23:38:50;;;;;;;7.20;2.60;;;-1.90;99.90;;;;;;6194688;23;20271;-91
2022/12/17 23:41:21;;;;;;;2.03;1.93;;;-2.00;99.90;;;;;;6219913;23;20200;-91
2022/12/17 23:43:47;;;;;;;2.13;1.93;;;-2.00;99.90;;;;;;6221004;23;20215;-91
2022/12/17 23:46:13;;;;;;;4.13;3.83;;;-2.00;99.90;;;;;;6172722;23;20605;-91
2022/12/17 23:48:41;;;;;;;7.43;3.47;;;-2.00;99.90;;;;;;6196920;23;20240;-91
2022/12/17 23:51:08;;;;;;;2.57;2.47;;;-2.00;99.90;;;;;;6197581;23;20157;-91
2022/12/17 23:53:35;;;;;;;6.00;5.60;;;-2.00;99.90;;;;;;6221683;23;20197;-91
2022/12/17 23:56:06;;;;;;;7.10;5.73;;;-2.00;99.90;;;;;;6197146;23;20217;-91
2022/12/17 23:58:32;;;;;;;3.10;2.20;;;-2.00;99.90;;;;;;6221803;23;20634;-91
